createdAt,value
2023-02-11T00:00:04.202Z,75.23
2023-02-11T00:05:12.352Z,75.14
2023-02-11T00:10:19.761Z,75.27
2023-02-11T00:15:27.446Z,75.23
2023-02-11T00:20:34.501Z,75.36
2023-02-11T00:25:44.005Z,75.30
2023-02-11T00:30:58.713Z,75.31
2023-02-11T00:36:09.399Z,75.48
2023-02-11T00:41:17.857Z,75.33
2023-02-11T00:46:25.516Z,75.30
2023-02-11T00:51:32.682Z,75.42
2023-02-11T00:56:39.887Z,75.32
2023-02-11T01:01:47.155Z,75.34
2023-02-11T01:06:54.372Z,75.23
2023-02-11T01:12:01.701Z,75.28
2023-02-11T01:17:09.108Z,75.36
2023-02-11T01:22:16.251Z,75.37
2023-02-11T01:27:23.747Z,75.27
2023-02-11T01:32:30.874Z,75.31
2023-02-11T01:37:38.198Z,75.30
2023-02-11T01:42:48.375Z,75.35
2023-02-11T01:47:57.452Z,75.32
2023-02-11T01:53:19.180Z,75.38
2023-02-11T01:58:27.091Z,75.34
2023-02-11T02:03:39.075Z,75.34
2023-02-11T02:08:52.700Z,75.30
2023-02-11T02:13:59.882Z,75.33
2023-02-11T02:19:35.248Z,75.19
2023-02-11T02:24:57.987Z,75.36
2023-02-11T02:30:27.767Z,75.41
2023-02-11T02:35:44.754Z,75.41
2023-02-11T02:40:55.927Z,75.44
2023-02-11T02:46:16.016Z,75.38
2023-02-11T02:51:48.638Z,75.36
2023-02-11T02:57:01.216Z,75.29
2023-02-11T03:02:16.552Z,75.50
2023-02-11T03:07:33.685Z,75.36
2023-02-11T03:12:43.565Z,75.39
2023-02-11T03:17:53.644Z,75.27
2023-02-11T03:23:12.930Z,75.36
2023-02-11T03:28:31.174Z,75.47
2023-02-11T03:33:38.935Z,75.41
2023-02-11T03:38:51.869Z,75.41
2023-02-11T03:44:00.858Z,75.45
2023-02-11T03:49:10.999Z,75.43
2023-02-11T03:54:21.561Z,75.36
2023-02-11T03:59:28.857Z,75.44
2023-02-11T04:04:36.019Z,75.34
2023-02-11T04:09:43.154Z,75.37
2023-02-11T04:14:50.375Z,75.44
2023-02-11T04:19:57.462Z,75.40
2023-02-11T04:25:05.149Z,75.45
2023-02-11T04:30:15.481Z,75.48
2023-02-11T04:35:22.699Z,75.49
2023-02-11T04:40:29.908Z,75.51
2023-02-11T04:45:37.555Z,75.56
2023-02-11T04:50:44.759Z,75.56
2023-02-11T04:55:53.199Z,75.71
2023-02-11T05:01:09.062Z,75.58
2023-02-11T05:06:16.614Z,75.75
2023-02-11T05:11:25.952Z,75.63
2023-02-11T05:16:33.260Z,75.62
2023-02-11T05:21:50.322Z,75.74
2023-02-11T05:27:04.560Z,75.70
2023-02-11T05:32:12.331Z,75.71
2023-02-11T05:37:20.164Z,75.67
2023-02-11T05:42:27.469Z,75.87
2023-02-11T05:47:34.761Z,75.89
2023-02-11T05:52:41.855Z,76.00
2023-02-11T05:57:49.193Z,76.02
2023-02-11T06:02:56.407Z,76.13
2023-02-11T06:08:03.646Z,76.12
2023-02-11T06:13:10.837Z,76.30
2023-02-11T06:18:18.049Z,76.53
2023-02-11T06:23:25.169Z,76.58
2023-02-11T06:28:40.004Z,76.52
2023-02-11T06:33:57.878Z,76.68
2023-02-11T06:39:05.200Z,76.77
2023-02-11T06:44:12.367Z,76.73
2023-02-11T06:49:19.616Z,76.75
2023-02-11T06:54:26.780Z,76.86
2023-02-11T06:59:33.974Z,76.93
2023-02-11T07:04:41.134Z,76.92
2023-02-11T07:09:48.334Z,77.10
2023-02-11T07:14:57.128Z,77.03
2023-02-11T07:20:04.824Z,77.09
2023-02-11T07:25:12.168Z,77.14
2023-02-11T07:30:19.622Z,77.13
2023-02-11T07:35:26.835Z,77.16
2023-02-11T07:40:34.031Z,77.25
2023-02-11T07:45:42.685Z,77.31
2023-02-11T07:50:50.638Z,77.30
2023-02-11T07:55:57.785Z,77.30
2023-02-11T08:01:06.051Z,77.43
2023-02-11T08:06:18.233Z,77.46
2023-02-11T08:11:28.170Z,77.41
2023-02-11T08:16:38.893Z,77.51
2023-02-11T08:21:47.230Z,77.56
2023-02-11T08:26:54.545Z,77.62
2023-02-11T08:32:01.683Z,77.65
2023-02-11T08:37:09.211Z,77.72
2023-02-11T08:42:16.868Z,77.64
2023-02-11T08:47:24.050Z,77.68
2023-02-11T08:52:31.276Z,77.76
2023-02-11T08:57:38.475Z,77.86
2023-02-11T09:02:45.554Z,77.91
2023-02-11T09:07:52.666Z,77.99
2023-02-11T09:12:59.818Z,78.05
2023-02-11T09:18:07.609Z,78.12
2023-02-11T09:23:16.465Z,78.04
2023-02-11T09:28:25.659Z,78.01
2023-02-11T09:33:32.955Z,78.16
2023-02-11T09:38:40.160Z,78.27
2023-02-11T09:43:49.524Z,78.32
2023-02-11T09:48:57.906Z,78.38
2023-02-11T09:54:13.304Z,78.55
2023-02-11T09:59:20.539Z,78.46
2023-02-11T10:04:45.959Z,78.41
2023-02-11T10:10:15.604Z,78.45
2023-02-11T10:15:29.372Z,78.57
2023-02-11T10:20:47.847Z,78.68
2023-02-11T10:25:56.504Z,78.60
2023-02-11T10:31:03.007Z,78.61
2023-02-11T10:36:14.918Z,78.80
2023-02-11T10:41:27.664Z,78.66
2023-02-11T10:46:40.332Z,78.70
2023-02-11T10:51:47.658Z,78.78
2023-02-11T10:57:02.034Z,78.95
2023-02-11T11:02:24.815Z,78.98
2023-02-11T11:07:35.391Z,79.03
2023-02-11T11:12:51.056Z,79.04
2023-02-11T11:23:29.745Z,78.93
2023-02-11T11:28:40.940Z,79.18
2023-02-11T11:33:49.532Z,79.28
2023-02-11T11:39:00.098Z,79.21
2023-02-11T11:44:25.617Z,79.25
2023-02-11T11:49:37.724Z,79.33
2023-02-11T11:54:49.025Z,79.33
2023-02-11T11:59:56.606Z,79.34
2023-02-11T12:05:13.046Z,79.41
2023-02-11T12:10:47.705Z,79.42
2023-02-11T12:16:10.043Z,79.51
2023-02-11T12:21:30.668Z,79.48
2023-02-11T12:26:45.793Z,79.55
2023-02-11T12:32:02.867Z,79.60
2023-02-11T12:37:20.329Z,79.47
2023-02-11T12:43:04.400Z,79.51
2023-02-11T12:48:35.714Z,79.62
2023-02-11T12:54:01.402Z,79.59
2023-02-11T12:59:14.830Z,79.70
2023-02-11T13:04:27.228Z,79.76
2023-02-11T13:09:42.288Z,79.79
2023-02-11T13:14:53.848Z,79.85
2023-02-11T13:20:09.337Z,79.93
2023-02-11T13:25:30.823Z,79.93
2023-02-11T13:30:47.140Z,79.87
2023-02-11T13:36:18.504Z,79.91
2023-02-11T13:41:30.854Z,79.99
2023-02-11T13:46:57.382Z,80.03
2023-02-11T13:52:06.834Z,80.01
2023-02-11T13:57:30.658Z,79.93
2023-02-11T14:02:55.834Z,80.01
2023-02-11T14:08:37.682Z,80.09
2023-02-11T14:14:05.029Z,80.02
2023-02-11T14:19:12.446Z,79.99
2023-02-11T14:24:48.241Z,80.10
2023-02-11T14:30:18.323Z,80.01
2023-02-11T14:35:33.513Z,80.14
2023-02-11T14:40:47.874Z,80.14
2023-02-11T14:45:57.731Z,80.19
2023-02-11T14:51:08.231Z,80.22
2023-02-11T14:56:22.892Z,80.16
2023-02-11T15:01:34.165Z,80.38
2023-02-11T15:06:44.062Z,80.37
2023-02-11T15:11:52.820Z,80.29
2023-02-11T15:17:02.730Z,80.21
2023-02-11T15:22:20.263Z,80.50
2023-02-11T15:27:27.589Z,80.48
2023-02-11T15:32:36.823Z,80.48
2023-02-11T15:37:44.965Z,80.35
2023-02-11T15:42:58.819Z,80.46
2023-02-11T15:48:14.560Z,80.47
2023-02-11T15:53:28.600Z,80.48
2023-02-11T15:58:42.048Z,80.54
2023-02-11T16:03:52.912Z,80.42
2023-02-11T16:09:06.200Z,80.46
2023-02-11T16:14:29.598Z,80.37
2023-02-11T16:19:44.125Z,80.43
2023-02-11T16:24:56.740Z,80.47
2023-02-11T16:30:05.779Z,80.61
2023-02-11T16:35:15.506Z,80.65
2023-02-11T16:40:23.853Z,80.51
2023-02-11T16:45:31.872Z,80.40
2023-02-11T16:50:37.492Z,80.45
2023-02-11T16:55:44.600Z,80.49
2023-02-11T17:00:52.207Z,80.63
2023-02-11T17:06:03.123Z,80.66
2023-02-11T17:11:10.470Z,80.76
2023-02-11T17:16:22.920Z,80.81
2023-02-11T17:21:31.636Z,80.71
2023-02-11T17:26:39.514Z,80.81
2023-02-11T17:31:49.184Z,80.75
2023-02-11T17:36:58.031Z,80.79
2023-02-11T17:42:06.234Z,80.68
2023-02-11T17:47:13.528Z,80.73
2023-02-11T17:52:21.717Z,80.67
2023-02-11T17:57:28.937Z,80.81
2023-02-11T18:02:36.145Z,80.78
2023-02-11T18:07:43.250Z,80.67
2023-02-11T18:12:50.477Z,80.74
2023-02-11T18:17:58.004Z,80.78
2023-02-11T18:23:05.193Z,80.75
2023-02-11T18:28:12.417Z,80.73
2023-02-11T18:33:20.319Z,80.65
2023-02-11T18:38:27.676Z,80.83
2023-02-11T18:43:35.394Z,80.89
2023-02-11T18:48:44.907Z,80.91
2023-02-11T18:53:52.172Z,80.71
2023-02-11T18:59:01.559Z,80.77
2023-02-11T19:04:12.339Z,80.62
2023-02-11T19:09:21.922Z,80.70
2023-02-11T19:14:31.628Z,80.83
2023-02-11T19:19:39.270Z,80.75
2023-02-11T19:24:46.461Z,80.79
2023-02-11T19:29:53.686Z,80.80
2023-02-11T19:35:00.824Z,80.73
2023-02-11T19:40:10.046Z,80.80
2023-02-11T19:45:17.614Z,80.74
2023-02-11T19:50:25.419Z,80.64
2023-02-11T19:55:35.633Z,80.67
2023-02-11T20:00:43.939Z,80.72
2023-02-11T20:05:51.522Z,80.65
2023-02-11T20:11:05.267Z,80.51
2023-02-11T20:16:16.888Z,80.61
2023-02-11T20:21:26.497Z,80.69
2023-02-11T20:26:35.504Z,80.91
2023-02-11T20:31:44.535Z,80.73
2023-02-11T20:36:53.009Z,80.72
2023-02-11T20:42:00.725Z,80.84
2023-02-11T20:47:08.406Z,80.99
2023-02-11T20:52:16.481Z,80.88
2023-02-11T20:57:24.145Z,80.97
2023-02-11T21:02:32.058Z,81.06
2023-02-11T21:07:40.697Z,81.06
2023-02-11T21:12:50.051Z,80.97
2023-02-11T21:18:00.742Z,81.10
2023-02-11T21:23:09.463Z,80.55
2023-02-11T21:28:18.710Z,80.48
2023-02-11T21:33:30.373Z,80.48
2023-02-11T21:38:41.117Z,80.63
2023-02-11T21:43:48.667Z,80.64
2023-02-11T21:48:56.227Z,80.66
2023-02-11T21:54:05.924Z,80.73
2023-02-11T21:59:15.772Z,80.92
2023-02-11T22:04:27.612Z,80.79
2023-02-11T22:09:35.366Z,80.77
2023-02-11T22:14:42.971Z,80.59
2023-02-11T22:19:50.389Z,80.60
2023-02-11T22:25:00.455Z,80.53
2023-02-11T22:30:10.279Z,80.41
2023-02-11T22:35:18.726Z,80.34
2023-02-11T22:40:26.209Z,80.36
2023-02-11T22:45:36.930Z,80.44
2023-02-11T22:50:44.363Z,80.56
2023-02-11T22:55:51.442Z,80.54
2023-02-11T23:00:58.593Z,80.43
2023-02-11T23:06:06.222Z,80.48
2023-02-11T23:11:15.875Z,80.49
2023-02-11T23:16:24.488Z,80.41
2023-02-11T23:21:34.445Z,80.39
2023-02-11T23:26:42.327Z,80.34
2023-02-11T23:31:50.015Z,80.26
2023-02-11T23:36:59.433Z,80.35
2023-02-11T23:42:06.953Z,80.28
2023-02-11T23:47:14.061Z,80.48
2023-02-11T23:52:21.295Z,80.43
2023-02-11T23:57:28.424Z,80.28
